Time;durP1;ratioP1;P1;durP2;ratioP2;P2;SDS_P1;SDS_P2;PMS_P1;PMS_P2;Temp;Humidity;BMP_temperature;BMP_pressure;BME280_temperature;BME280_humidity;BME280_pressure;Samples;Min_cycle;Max_cycle;Signal;HPM_P1;HPM_P2
2023/06/08 00:03:29;;;;;;;;;16.50;14.75;;;;;22.98;39.32;100803.94;4975198;28;45525;-76
2023/06/08 00:05:57;;;;;;;;;14.00;14.00;;;;;22.98;39.11;100811.13;4975225;28;46480;-76
2023/06/08 00:08:23;;;;;;;;;13.75;13.25;;;;;22.89;40.04;100796.19;4974909;28;47130;-75
2023/06/08 00:10:48;;;;;;;;;11.75;11.75;;;;;22.96;40.42;100807.81;4974600;28;45840;-76
2023/06/08 00:13:14;;;;;;;;;15.75;14.25;;;;;22.89;39.62;100798.84;4975241;28;45752;-76
2023/06/08 00:19:01;;;;;;;;;18.50;17.25;;;;;22.84;40.67;100798.56;4974760;28;46115;-76
2023/06/08 00:21:29;;;;;;;;;16.00;14.75;;;;;22.80;40.52;100797.28;4974934;28;45732;-76
2023/06/08 00:23:55;;;;;;;;;13.75;12.25;;;;;22.75;40.44;100784.50;4974761;28;45572;-76
2023/06/08 00:26:21;;;;;;;;;15.00;14.75;;;;;22.75;40.85;100789.00;4974865;28;46205;-76
2023/06/08 00:28:48;;;;;;;;;15.25;14.75;;;;;22.63;40.49;100771.72;4974787;28;45587;-76
2023/06/08 00:31:15;;;;;;;;;15.75;15.50;;;;;22.66;41.27;100784.72;4974467;28;45586;-74
2023/06/08 00:33:40;;;;;;;;;16.00;15.50;;;;;22.62;40.63;100783.44;4974940;28;45620;-76
2023/06/08 00:36:06;;;;;;;;;18.75;16.00;;;;;22.59;41.51;100785.47;4974801;28;45666;-76
2023/06/08 00:38:31;;;;;;;;;18.25;17.50;;;;;22.58;41.06;100782.97;4974782;28;45771;-76
2023/06/08 00:40:56;;;;;;;;;14.75;14.00;;;;;22.55;41.38;100778.84;4974169;28;45654;-75
2023/06/08 00:43:22;;;;;;;;;18.25;16.50;;;;;22.53;41.71;100780.00;4974426;28;45758;-77
2023/06/08 00:49:15;;;;;;;;;16.25;15.75;;;;;22.49;41.96;100771.53;4974359;28;45858;-76
2023/06/08 00:51:42;;;;;;;;;15.25;13.25;;;;;22.42;41.94;100757.25;4974274;28;45694;-77
2023/06/08 00:54:12;;;;;;;;;18.50;17.00;;;;;22.47;42.20;100765.53;4974724;28;45482;-76
2023/06/08 00:56:38;;;;;;;;;19.25;18.25;;;;;22.44;42.42;100771.25;4956514;28;48401;-76
2023/06/08 00:59:05;;;;;;;;;20.75;19.25;;;;;22.37;42.66;100758.81;4956569;28;47259;-76
2023/06/08 01:01:31;;;;;;;;;19.75;17.00;;;;;22.38;42.60;100766.66;4973722;28;45607;-75
2023/06/08 01:04:05;;;;;;;;;17.75;17.75;;;;;22.37;42.46;100761.47;4974459;28;45695;-77
2023/06/08 01:06:35;;;;;;;;;15.50;13.50;;;;;22.35;42.13;100760.84;4974390;28;45583;-75
2023/06/08 01:09:01;;;;;;;;;18.50;16.75;;;;;22.35;41.97;100761.66;4973831;28;46776;-76
2023/06/08 01:11:45;;;;;;;;;16.25;15.50;;;;;22.37;42.50;100761.47;4973759;28;45674;-74
2023/06/08 01:21:11;;;;;;;;;17.00;15.00;;;;;22.41;42.89;100765.44;4973619;28;45789;-76
2023/06/08 01:23:55;;;;;;;;;16.25;15.25;;;;;22.41;42.71;100763.59;4956364;28;45815;-76
2023/06/08 01:26:21;;;;;;;;;19.00;18.00;;;;;22.41;42.48;100763.59;4974288;28;45635;-77
2023/06/08 01:28:48;;;;;;;;;18.00;16.25;;;;;22.39;43.12;100770.16;4974098;28;46536;-76
2023/06/08 01:31:14;;;;;;;;;16.25;15.25;;;;;22.39;42.88;100767.47;4973183;28;47088;-77
2023/06/08 01:33:39;;;;;;;;;20.00;18.50;;;;;22.36;42.97;100774.00;4974037;28;45694;-76
2023/06/08 01:36:14;;;;;;;;;17.50;17.00;;;;;22.33;42.86;100762.88;4974295;28;45786;-76
2023/06/08 01:38:59;;;;;;;;;17.00;17.00;;;;;22.30;43.33;100758.69;4973901;28;45611;-75
2023/06/08 01:41:30;;;;;;;;;20.50;19.75;;;;;22.27;43.61;100755.56;4973454;28;46843;-76
2023/06/08 01:43:58;;;;;;;;;18.75;18.25;;;;;22.25;43.16;100760.25;4973578;28;45640;-76
2023/06/08 01:46:27;;;;;;;;;21.00;20.00;;;;;22.21;43.43;100759.78;4974088;28;45789;-76
2023/06/08 01:48:55;;;;;;;;;19.25;17.75;;;;;;;;4973784;28;45680;-77
2023/06/08 01:51:22;;;;;;;;;23.00;22.25;;;;;22.14;43.76;100757.00;4973225;28;47166;-76
2023/06/08 01:53:47;;;;;;;;;19.25;18.75;;;;;22.12;43.55;100761.72;4973936;28;45561;-76
2023/06/08 01:56:14;;;;;;;;;18.25;17.50;;;;;22.10;43.97;100769.06;4973661;28;45554;-75
2023/06/08 01:58:39;;;;;;;;;22.00;19.25;;;;;22.06;44.56;100765.09;4955856;28;47686;-76
2023/06/08 02:01:04;;;;;;;;;22.75;20.75;;;;;22.04;44.63;100764.44;4972827;28;47271;-76
2023/06/08 02:03:30;;;;;;;;;23.00;22.75;;;;;21.94;45.23;100765.66;4973706;28;45692;-76
2023/06/08 02:05:55;;;;;;;;;22.25;21.25;;;;;21.94;45.05;100773.66;4973427;28;45890;-75
2023/06/08 02:08:21;;;;;;;;;23.75;23.25;;;;;21.84;45.35;100770.41;4973777;28;46496;-75
2023/06/08 02:10:47;;;;;;;;;23.25;21.75;;;;;21.71;45.21;100760.31;4973485;28;45974;-77
2023/06/08 02:13:12;;;;;;;;;24.25;22.25;;;;;21.70;45.71;100766.69;4972487;28;45686;-75
2023/06/08 02:15:38;;;;;;;;;26.00;25.00;;;;;21.66;45.48;100773.38;4972436;28;45873;-76
2023/06/08 02:18:05;;;;;;;;;25.25;22.00;;;;;21.61;45.56;100768.56;4954539;28;46401;-76
2023/06/08 02:20:33;;;;;;;;;22.50;22.50;;;;;21.58;45.66;100771.59;4971228;28;47235;-76
2023/06/08 02:22:58;;;;;;;;;23.00;22.75;;;;;21.46;46.09;100753.50;4972324;28;45821;-75
2023/06/08 02:25:23;;;;;;;;;24.25;23.50;;;;;21.51;46.27;100761.78;4957969;28;46078;-76
2023/06/08 02:27:49;;;;;;;;;23.00;23.00;;;;;21.49;46.40;100763.78;4975943;28;46510;-76
2023/06/08 02:30:15;;;;;;;;;20.00;19.75;;;;;21.47;46.15;100764.00;4974863;28;46952;-75
2023/06/08 02:36:02;;;;;;;;;19.75;18.00;;;;;21.36;46.51;100745.72;4975918;28;45743;-75
2023/06/08 02:38:28;;;;;;;;;20.75;19.25;;;;;21.32;46.11;100742.56;4975236;28;47276;-76
2023/06/08 02:40:53;;;;;;;;;22.50;21.00;;;;;21.28;46.65;100749.25;4973528;28;48429;-77
2023/06/08 02:43:19;;;;;;;;;23.00;22.25;;;;;21.23;46.55;100740.97;4973788;28;45646;-74
2023/06/08 02:45:45;;;;;;;;;26.75;24.00;;;;;21.28;46.78;100751.91;4975173;28;45912;-74
2023/06/08 02:48:10;;;;;;;;;20.50;18.75;;;;;21.27;46.87;100760.91;4975230;28;46568;-76
2023/06/08 02:50:36;;;;;;;;;22.00;21.00;;;;;21.26;46.99;100759.28;4957033;28;46272;-76
2023/06/08 02:53:02;;;;;;;;;23.50;22.50;;;;;21.24;47.18;100749.78;4975098;28;45737;-76
2023/06/08 02:55:28;;;;;;;;;22.75;22.25;;;;;21.24;47.41;100758.63;4975369;28;45832;-76
2023/06/08 02:57:53;;;;;;;;;23.50;21.50;;;;;21.23;47.12;100764.94;4975030;28;45535;-76
2023/06/08 03:00:21;;;;;;;;;25.25;24.50;;;;;21.18;47.56;100761.97;4974461;28;46335;-75
2023/06/08 03:06:09;;;;;;;;;25.75;23.75;;;;;21.11;48.06;100760.13;4974972;28;45888;-74
2023/06/08 03:08:36;;;;;;;;;23.00;22.50;;;;;21.06;48.22;100758.00;4974528;28;47239;-75
2023/06/08 03:11:02;;;;;;;;;27.50;24.75;;;;;21.00;48.13;100758.69;4974147;28;47026;-74
2023/06/08 03:13:27;;;;;;;;;26.25;25.00;;;;;20.95;48.21;100753.88;4974728;28;45900;-75
2023/06/08 03:15:53;;;;;;;;;28.00;23.75;;;;;20.91;48.41;100751.72;4975058;28;45738;-74
2023/06/08 03:18:18;;;;;;;;;23.75;22.50;;;;;20.84;48.57;100750.75;4974543;28;47496;-76
2023/06/08 03:20:44;;;;;;;;;25.75;24.50;;;;;20.70;48.34;100732.81;4956527;28;48109;-76
2023/06/08 03:23:09;;;;;;;;;24.25;23.75;;;;;20.74;48.40;100750.94;4974955;28;45650;-76
2023/06/08 03:25:36;;;;;;;;;22.00;22.00;;;;;20.67;48.41;100749.16;4974747;28;45745;-76
2023/06/08 03:28:02;;;;;;;;;23.25;22.00;;;;;20.60;48.48;100746.34;4974803;28;45780;-75
2023/06/08 03:30:28;;;;;;;;;25.25;24.50;;;;;20.61;48.28;100745.34;4973882;28;46564;-75
2023/06/08 03:36:15;;;;;;;;;21.50;20.00;;;;;20.43;48.57;100726.09;4973697;28;45669;-76
2023/06/08 03:38:41;;;;;;;;;15.75;15.75;;;;;20.43;48.75;100736.72;4956689;28;48652;-76
2023/06/08 03:41:08;;;;;;;;;24.75;23.00;;;;;20.42;48.72;100738.56;4974073;28;45639;-75
2023/06/08 03:43:35;;;;;;;;;22.00;21.25;;;;;20.31;48.93;100730.91;4973896;28;45866;-74
2023/06/08 03:46:01;;;;;;;;;24.00;23.50;;;;;20.33;49.45;100744.91;4974440;28;45761;-76
2023/06/08 03:51:48;;;;;;;;;24.50;24.50;;;;;20.25;49.38;100741.38;4973884;28;46124;-74
2023/06/08 03:54:13;;;;;;;;;20.50;20.50;;;;;20.23;48.93;100735.41;4974656;28;45777;-76
2023/06/08 03:56:39;;;;;;;;;22.75;21.50;;;;;20.22;49.35;100737.22;4974246;28;45851;-74
2023/06/08 03:59:06;;;;;;;;;23.25;21.50;;;;;20.16;49.81;100731.75;4973685;28;46454;-76
2023/06/08 04:01:31;;;;;;;;;25.25;22.75;;;;;20.11;49.60;100725.09;4955997;28;47041;-75
2023/06/08 04:03:57;;;;;;;;;22.50;21.00;;;;;20.08;49.38;100725.41;4974125;28;45679;-75
2023/06/08 04:06:23;;;;;;;;;21.75;21.00;;;;;20.07;49.06;100729.09;4974043;28;45561;-76
2023/06/08 04:08:50;;;;;;;;;20.50;20.00;;;;;20.05;49.46;100725.78;4974234;28;45741;-76
2023/06/08 04:11:15;;;;;;;;;25.25;24.25;;;;;20.10;49.89;100734.06;4973671;28;46133;-75
2023/06/08 04:13:41;;;;;;;;;24.25;23.00;;;;;20.03;49.74;100725.09;4974074;28;45748;-76
2023/06/08 04:16:09;;;;;;;;;25.50;24.50;;;;;20.06;49.83;100734.59;4974190;28;45577;-76
2023/06/08 04:21:56;;;;;;;;;24.75;23.75;;;;;19.97;50.48;100735.59;4973012;28;46154;-75
2023/06/08 04:24:28;;;;;;;;;21.25;20.25;;;;;19.91;50.50;100729.13;4973910;28;45764;-76
2023/06/08 04:26:53;;;;;;;;;25.50;24.75;;;;;19.85;50.54;100735.09;4974038;28;46000;-76
2023/06/08 04:29:19;;;;;;;;;23.25;22.25;;;;;19.82;51.08;100729.25;4974600;28;47401;-76
2023/06/08 04:31:45;;;;;;;;;24.75;24.75;;;;;19.69;51.30;100719.13;4974773;28;45826;-76
2023/06/08 04:37:32;;;;;;;;;27.50;26.50;;;;;19.67;50.95;100727.25;4974044;28;45712;-75
2023/06/08 04:39:58;;;;;;;;;27.25;25.00;;;;;19.64;51.02;100732.09;4972891;28;47250;-76
2023/06/08 04:42:24;;;;;;;;;26.75;24.50;;;;;19.57;51.50;100723.09;4973136;28;46071;-75
2023/06/08 04:44:50;;;;;;;;;28.25;26.75;;;;;19.57;51.90;100731.06;4956364;28;45962;-76
2023/06/08 04:47:17;;;;;;;;;27.75;25.00;;;;;19.54;51.95;100729.56;4974179;28;45553;-76
2023/06/08 04:49:42;;;;;;;;;22.50;22.50;;;;;19.52;51.98;100736.88;4973579;28;45567;-75
2023/06/08 04:52:09;;;;;;;;;25.50;24.75;;;;;19.52;51.99;100736.03;4972567;28;47301;-75
2023/06/08 04:54:36;;;;;;;;;28.50;26.50;;;;;19.51;51.95;100724.59;4973310;28;45522;-74
2023/06/08 04:57:03;;;;;;;;;30.50;27.00;;;;;19.51;51.98;100729.06;4973493;28;45757;-75
2023/06/08 04:59:29;;;;;;;;;28.00;26.00;;;;;19.49;52.95;100731.03;4973368;28;45691;-75
2023/06/08 05:01:55;;;;;;;;;28.50;27.00;;;;;19.47;52.22;100736.53;4972829;28;46073;-77
2023/06/08 05:07:42;;;;;;;;;29.75;28.25;;;;;19.38;53.40;100737.47;4972919;28;45656;-76
2023/06/08 05:10:08;;;;;;;;;31.25;28.00;;;;;19.35;54.07;100732.50;4954946;28;47079;-74
2023/06/08 05:12:33;;;;;;;;;34.75;28.25;;;;;19.25;53.85;100723.84;4973116;28;45864;-75
2023/06/08 05:15:00;;;;;;;;;36.75;31.75;;;;;19.28;53.79;100739.44;4972798;28;45837;-76
2023/06/08 05:17:25;;;;;;;;;33.50;31.00;;;;;19.24;53.95;100728.31;4973345;28;45640;-75
2023/06/08 05:23:13;;;;;;;;;33.25;30.25;;;;;19.19;54.23;100735.94;4972042;28;46244;-73
2023/06/08 05:25:38;;;;;;;;;30.00;28.50;;;;;19.19;54.42;100740.41;4972791;28;45688;-74
2023/06/08 05:28:04;;;;;;;;;28.50;25.00;;;;;19.19;54.49;100732.44;4954969;28;45865;-74
2023/06/08 05:30:30;;;;;;;;;36.00;32.75;;;;;19.17;55.14;100737.91;4971889;28;47338;-73
2023/06/08 05:32:55;;;;;;;;;35.75;31.25;;;;;19.15;55.05;100733.78;4954859;28;48037;-74
2023/06/08 05:35:22;;;;;;;;;35.25;29.75;;;;;19.17;55.92;100737.06;4972944;28;45818;-74
2023/06/08 05:37:48;;;;;;;;;38.25;32.00;;;;;19.10;55.29;100725.44;4972504;28;45890;-74
2023/06/08 05:40:14;;;;;;;;;37.00;33.50;;;;;19.13;55.55;100725.94;4971877;28;46490;-74
2023/06/08 05:42:39;;;;;;;;;37.00;33.75;;;;;19.15;55.90;100729.28;4972319;28;46205;-74
2023/06/08 05:45:05;;;;;;;;;35.50;32.25;;;;;19.15;55.50;100733.78;4972831;28;45691;-74
2023/06/08 05:47:31;;;;;;;;;34.75;32.50;;;;;19.09;55.31;100718.47;4972915;28;45614;-73
2023/06/08 05:53:17;;;;;;;;;37.00;33.50;;;;;19.26;55.32;100714.88;4972609;28;46126;-74
2023/06/08 05:55:44;;;;;;;;;35.00;31.25;;;;;19.23;55.06;100715.19;4972521;28;45662;-73
2023/06/08 05:58:10;;;;;;;;;42.25;34.25;;;;;19.33;55.54;100720.34;4972857;28;45973;-74
2023/06/08 06:00:35;;;;;;;;;36.75;33.00;;;;;19.32;55.82;100706.25;4975416;28;46681;-74
2023/06/08 06:03:01;;;;;;;;;39.75;33.00;;;;;19.36;55.74;100714.72;4975847;28;46012;-74
2023/06/08 06:08:48;;;;;;;;;37.25;33.25;;;;;19.44;56.22;100710.25;4975737;28;45704;-71
2023/06/08 06:11:13;;;;;;;;;43.00;34.25;;;;;19.46;55.81;100718.94;4974684;28;46510;-74
2023/06/08 06:13:38;;;;;;;;;42.00;34.00;;;;;19.50;55.84;100714.09;4975727;28;45652;-75
2023/06/08 06:16:04;;;;;;;;;42.25;35.25;;;;;19.51;55.88;100713.94;4975600;28;46031;-74
2023/06/08 06:18:29;;;;;;;;;39.00;33.50;;;;;19.54;56.06;100707.50;4975198;28;45593;-74
2023/06/08 06:20:55;;;;;;;;;42.00;35.00;;;;;19.53;55.85;100711.13;4974772;28;46707;-73
2023/06/08 06:23:20;;;;;;;;;46.00;36.75;;;;;19.56;55.73;100703.66;4975475;28;47046;-74
2023/06/08 06:25:46;;;;;;;;;42.25;35.75;;;;;19.59;56.03;100707.81;4975573;28;45770;-73
2023/06/08 06:28:11;;;;;;;;;39.00;34.75;;;;;19.63;55.98;100715.31;4975248;28;45537;-73
2023/06/08 06:30:36;;;;;;;;;33.25;30.25;;;;;19.65;56.11;100710.63;4975013;28;49637;-73
2023/06/08 06:33:02;;;;;;;;;39.50;34.50;;;;;19.61;55.89;100704.00;4975245;28;46321;-73
2023/06/08 06:38:49;;;;;;;;;41.25;35.50;;;;;19.79;56.05;100716.31;4975283;28;45673;-71
2023/06/08 06:41:14;;;;;;;;;41.25;32.50;;;;;19.80;55.31;100705.50;4974710;28;46267;-72
2023/06/08 06:43:40;;;;;;;;;42.00;35.50;;;;;19.86;55.90;100709.34;4957012;28;45699;-72
2023/06/08 06:46:06;;;;;;;;;43.50;36.00;;;;;19.89;55.69;100709.81;4974993;28;45744;-74
2023/06/08 06:48:31;;;;;;;;;39.00;33.00;;;;;19.93;55.35;100707.66;4971966;28;45723;-74
2023/06/08 06:54:18;;;;;;;;;41.25;35.50;;;;;20.03;55.03;100695.84;4973860;28;45770;-74
2023/06/08 06:56:44;;;;;;;;;46.25;36.25;;;;;20.11;55.37;100708.31;4973680;28;45729;-73
2023/06/08 06:59:10;;;;;;;;;39.50;35.00;;;;;20.17;55.02;100701.47;4973751;28;45557;-73
2023/06/08 07:01:35;;;;;;;;;42.50;35.75;;;;;20.20;55.32;100701.13;4973195;28;45738;-74
2023/06/08 07:04:03;;;;;;;;;44.50;36.75;;;;;20.27;55.46;100707.44;4973061;28;46441;-72
2023/06/08 07:06:30;;;;;;;;;43.75;36.25;;;;;20.21;55.12;100682.34;4973780;28;45874;-71
2023/06/08 07:08:56;;;;;;;;;41.75;35.00;;;;;20.37;55.42;100700.97;4973905;28;45536;-73
2023/06/08 07:11:21;;;;;;;;;46.50;37.50;;;;;20.38;55.31;100692.00;4974765;28;45548;-73
2023/06/08 07:13:46;;;;;;;;;43.75;36.25;;;;;20.42;55.10;100697.78;4975103;28;46305;-73
2023/06/08 07:16:12;;;;;;;;;45.00;38.00;;;;;20.46;54.80;100702.59;4976028;28;45783;-72
2023/06/08 07:18:37;;;;;;;;;45.75;38.50;;;;;20.50;55.14;100701.28;4975583;28;45839;-71
2023/06/08 07:24:24;;;;;;;;;44.75;36.50;;;;;20.57;55.13;100697.94;4975217;28;45820;-73
2023/06/08 07:26:49;;;;;;;;;37.50;33.00;;;;;20.60;54.95;100693.09;4975713;28;45578;-74
2023/06/08 07:29:15;;;;;;;;;44.50;36.00;;;;;20.62;54.69;100692.94;4975499;28;45926;-72
2023/06/08 07:31:40;;;;;;;;;45.25;37.25;;;;;20.53;54.67;100673.47;4975075;28;45642;-70
2023/06/08 07:34:09;;;;;;;;;48.25;39.25;;;;;20.70;54.83;100690.22;4975699;28;45768;-71
2023/06/08 07:39:56;;;;;;;;;45.75;36.00;;;;;20.77;54.97;100685.88;4974976;28;45659;-72
2023/06/08 07:42:21;;;;;;;;;45.25;36.25;;;;;20.77;54.59;100677.88;4975155;28;46372;-73
2023/06/08 07:44:48;;;;;;;;;46.50;37.25;;;;;20.87;54.78;100683.81;4975308;28;46232;-72
2023/06/08 07:47:14;;;;;;;;;40.75;35.50;;;;;20.92;54.71;100689.47;4975500;28;45629;-72
2023/06/08 07:49:39;;;;;;;;;47.50;39.00;;;;;20.97;54.65;100687.09;4975035;28;45505;-70
2023/06/08 07:52:05;;;;;;;;;45.00;37.75;;;;;20.99;54.59;100682.44;4957630;28;45933;-73
2023/06/08 07:54:31;;;;;;;;;48.25;39.00;;;;;20.91;54.80;100672.66;4975305;28;46166;-73
2023/06/08 07:56:56;;;;;;;;;41.25;35.00;;;;;21.06;54.77;100686.06;4957730;28;45676;-73
2023/06/08 07:59:21;;;;;;;;;41.00;34.75;;;;;21.09;54.59;100683.06;4974886;28;45699;-73
2023/06/08 08:01:47;;;;;;;;;44.25;34.75;;;;;21.14;54.69;100691.38;4974632;28;45642;-72
2023/06/08 08:04:13;;;;;;;;;46.00;37.25;;;;;21.10;54.33;100673.22;4975029;28;46890;-74
2023/06/08 08:10:00;;;;;;;;;40.00;33.50;;;;;21.27;54.00;100690.78;4974711;28;45609;-73
2023/06/08 08:12:26;;;;;;;;;47.00;38.50;;;;;21.31;54.35;100690.28;4974579;28;46521;-72
2023/06/08 08:14:51;;;;;;;;;39.50;34.50;;;;;21.35;54.39;100688.09;4974554;28;46011;-72
2023/06/08 08:17:17;;;;;;;;;45.25;37.50;;;;;21.38;54.04;100677.06;4974482;28;45713;-71
2023/06/08 08:19:42;;;;;;;;;45.75;37.25;;;;;21.43;54.32;100679.22;4974824;28;45588;-72
2023/06/08 08:25:29;;;;;;;;;43.50;35.25;;;;;21.54;53.84;100668.94;4974362;28;45670;-73
2023/06/08 08:27:55;;;;;;;;;42.25;35.25;;;;;21.58;54.21;100664.94;4974631;28;45774;-72
2023/06/08 08:30:20;;;;;;;;;41.25;36.50;;;;;21.61;53.76;100669.06;4974567;28;45792;-72
2023/06/08 08:32:45;;;;;;;;;42.25;36.75;;;;;21.68;53.84;100670.84;4974408;28;47084;-72
2023/06/08 08:35:11;;;;;;;;;47.00;37.75;;;;;21.65;53.79;100654.34;4974485;28;45484;-74
2023/06/08 08:37:36;;;;;;;;;43.00;37.25;;;;;21.69;53.42;100647.66;4974255;28;45730;-72
2023/06/08 08:40:03;;;;;;;;;42.50;36.00;;;;;21.78;53.51;100663.41;4974473;28;45593;-72
2023/06/08 08:42:30;;;;;;;;;38.25;34.50;;;;;21.82;53.82;100663.03;4974141;28;46612;-71
2023/06/08 08:44:57;;;;;;;;;43.75;37.75;;;;;21.81;53.59;100645.41;4974465;28;46091;-72
2023/06/08 08:47:26;;;;;;;;;42.50;36.00;;;;;21.93;53.27;100659.94;4974284;28;45850;-72
2023/06/08 08:49:59;;;;;;;;;36.25;33.25;;;;;21.96;53.30;100659.63;4973824;28;45730;-72
2023/06/08 08:55:47;;;;;;;;;43.50;36.25;;;;;22.06;52.70;100654.84;4973957;28;45732;-72
2023/06/08 08:58:18;;;;;;;;;39.50;35.75;;;;;22.08;52.73;100652.81;4974096;28;45869;-71
2023/06/08 09:00:48;;;;;;;;;32.25;31.50;;;;;22.08;52.73;100634.13;4973797;28;45612;-71
2023/06/08 09:03:15;;;;;;;;;39.75;35.50;;;;;22.17;52.66;100643.72;4973926;28;46815;-71
2023/06/08 09:05:41;;;;;;;;;40.00;34.00;;;;;22.20;53.04;100643.34;4973867;28;45959;-72
2023/06/08 09:08:06;;;;;;;;;39.50;33.50;;;;;22.23;52.53;100644.84;4974105;28;45536;-73
2023/06/08 09:10:33;;;;;;;;;39.25;33.50;;;;;22.24;52.96;100630.50;4972575;28;45675;-73
2023/06/08 09:13:01;;;;;;;;;39.25;35.50;;;;;22.29;52.23;100636.94;4974118;28;46340;-74
2023/06/08 09:15:32;;;;;;;;;40.00;35.00;;;;;22.38;52.66;100633.16;4974011;28;46253;-72
2023/06/08 09:18:02;;;;;;;;;39.75;34.00;;;;;22.40;52.03;100635.63;4973815;28;45876;-72
2023/06/08 09:26:57;;;;;;;;;39.50;33.75;;;;;22.53;51.66;100625.13;4973709;28;46195;-73
2023/06/08 09:29:32;;;;;;;;;29.50;27.00;;;;;22.60;52.12;100626.03;4973749;28;45521;-73
2023/06/08 09:31:59;;;;;;;;;36.00;31.50;;;;;22.60;52.07;100618.84;4973787;28;45508;-73
2023/06/08 09:34:25;;;;;;;;;33.75;31.50;;;;;22.75;51.28;100634.03;4975907;28;46394;-73
2023/06/08 09:36:52;;;;;;;;;36.00;32.75;;;;;22.81;51.24;100627.97;4976791;28;47226;-71
2023/06/08 09:39:18;;;;;;;;;28.00;28.00;;;;;22.77;51.06;100618.66;4976874;28;45988;-73
2023/06/08 09:41:56;;;;;;;;;35.00;32.00;;;;;22.89;51.04;100627.84;4976197;28;45533;-73
2023/06/08 09:44:21;;;;;;;;;34.75;32.25;;;;;22.91;50.69;100633.81;4977154;28;45620;-72
2023/06/08 09:46:48;;;;;;;;;32.25;31.25;;;;;22.95;50.57;100633.25;4977252;28;45666;-70
2023/06/08 09:49:15;;;;;;;;;30.50;29.25;;;;;23.00;50.39;100630.84;4976837;28;45772;-72
2023/06/08 09:51:47;;;;;;;;;30.50;28.50;;;;;23.06;50.52;100625.75;4977015;28;45640;-72
2023/06/08 09:54:15;;;;;;;;;27.75;25.25;;;;;23.11;50.56;100620.66;4976815;28;46560;-72
2023/06/08 09:56:45;;;;;;;;;28.25;26.75;;;;;23.18;50.60;100618.91;4976725;28;46198;-72
2023/06/08 09:59:14;;;;;;;;;31.00;30.00;;;;;23.24;50.19;100613.63;4976661;28;45697;-72
2023/06/08 10:01:50;;;;;;;;;29.75;28.75;;;;;23.31;50.30;100611.03;4976989;28;45642;-71
2023/06/08 10:04:31;;;;;;;;;29.75;29.50;;;;;23.35;49.11;100610.44;4976697;28;46700;-72
2023/06/08 10:07:02;;;;;;;;;31.25;29.25;;;;;23.40;49.49;100601.84;4976765;28;46128;-72
2023/06/08 10:09:29;;;;;;;;;34.00;30.75;;;;;23.41;48.99;100600.81;4974967;28;45670;-73
2023/06/08 10:12:00;;;;;;;;;33.50;31.25;;;;;23.52;49.14;100604.84;4976714;28;45757;-72
2023/06/08 10:14:26;;;;;;;;;31.50;29.00;;;;;23.54;49.13;100611.66;4976404;28;47365;-73
2023/06/08 10:17:01;;;;;;;;;29.00;26.75;;;;;23.58;48.42;100604.09;4976427;28;46299;-72
2023/06/08 10:19:27;;;;;;;;;32.50;29.25;;;;;23.63;48.43;100601.66;4975928;28;45521;-73
2023/06/08 10:21:54;;;;;;;;;29.50;27.50;;;;;23.65;48.55;100604.94;4976757;28;45553;-73
2023/06/08 10:24:23;;;;;;;;;32.50;27.50;;;;;23.66;48.28;100601.25;4976565;28;46419;-72
2023/06/08 10:26:50;;;;;;;;;31.25;24.75;;;;;23.74;47.74;100595.78;4958763;28;48469;-73
2023/06/08 10:29:16;;;;;;;;;28.50;27.50;;;;;23.79;47.89;100596.00;4976461;28;45773;-73
2023/06/08 10:31:47;;;;;;;;;30.25;25.75;;;;;23.84;47.57;100591.72;4976238;28;45946;-71
2023/06/08 10:34:13;;;;;;;;;26.75;26.00;;;;;23.90;47.53;100584.78;4976163;28;47335;-73
2023/06/08 10:36:43;;;;;;;;;24.00;23.25;;;;;23.98;47.55;100591.81;4976046;28;46335;-72
2023/06/08 10:39:14;;;;;;;;;28.00;24.50;;;;;24.08;47.22;100597.63;4976344;28;45543;-72
2023/06/08 10:41:41;;;;;;;;;25.75;24.75;;;;;24.15;46.59;100590.47;4976268;28;46026;-71
2023/06/08 10:44:25;;;;;;;;;23.75;23.25;;;;;24.20;45.85;100583.53;4975277;28;46610;-72
2023/06/08 10:47:06;;;;;;;;;21.75;21.75;;;;;24.25;45.48;100581.06;4976004;28;46377;-73
2023/06/08 10:49:34;;;;;;;;;28.25;27.50;;;;;24.29;45.45;100580.69;4958276;28;45633;-73
2023/06/08 10:52:01;;;;;;;;;24.50;23.50;;;;;24.30;45.17;100574.28;4976427;28;45856;-73
2023/06/08 10:54:27;;;;;;;;;24.25;23.75;;;;;24.34;45.32;100570.22;4975895;28;47360;-71
2023/06/08 10:56:58;;;;;;;;;24.50;22.50;;;;;24.39;45.43;100565.91;4976041;28;46347;-72
2023/06/08 10:59:36;;;;;;;;;26.00;23.75;;;;;24.45;45.08;100567.78;4975620;28;45524;-72
2023/06/08 11:02:04;;;;;;;;;22.50;21.50;;;;;24.50;44.66;100564.50;4976258;28;45582;-71
2023/06/08 11:04:30;;;;;;;;;25.75;24.00;;;;;24.52;44.33;100559.75;4975752;28;47380;-72
2023/06/08 11:07:03;;;;;;;;;26.00;25.50;;;;;24.56;44.29;100556.47;4975740;28;47122;-72
2023/06/08 11:09:31;;;;;;;;;25.50;24.00;;;;;24.60;44.37;100555.06;4975411;28;45774;-73
2023/06/08 11:11:56;;;;;;;;;21.50;21.50;;;;;24.64;44.47;100548.28;4975769;28;45718;-72
2023/06/08 11:14:22;;;;;;;;;21.75;21.25;;;;;24.70;44.03;100545.81;4975811;28;45548;-72
2023/06/08 11:16:50;;;;;;;;;23.75;22.50;;;;;24.73;42.96;100546.22;4975633;28;46211;-72
2023/06/08 11:19:19;;;;;;;;;19.75;18.00;;;;;24.78;42.29;100545.63;4975296;28;45724;-71
2023/06/08 11:21:46;;;;;;;;;18.75;17.25;;;;;24.83;41.92;100543.97;4975843;28;45517;-72
2023/06/08 11:24:14;;;;;;;;;17.50;16.50;;;;;24.85;41.56;100525.00;4975421;28;46476;-72
2023/06/08 11:26:39;;;;;;;;;23.25;22.75;;;;;24.96;42.01;100529.81;4975559;28;46198;-71
2023/06/08 11:29:05;;;;;;;;;21.75;20.25;;;;;25.03;42.16;100531.47;4975256;28;45528;-72
2023/06/08 11:31:32;;;;;;;;;22.25;21.00;;;;;25.08;41.71;100534.38;4975645;28;45557;-72
2023/06/08 11:33:57;;;;;;;;;19.25;19.25;;;;;25.17;41.33;100534.16;4975498;28;45665;-72
2023/06/08 11:36:23;;;;;;;;;20.00;19.75;;;;;25.21;41.27;100527.38;4975509;28;45647;-72
2023/06/08 11:42:10;;;;;;;;;20.25;20.25;;;;;25.33;41.31;100526.50;4975121;28;45748;-73
2023/06/08 11:44:36;;;;;;;;;22.00;20.50;;;;;25.36;41.36;100525.28;4974851;28;46496;-73
2023/06/08 11:47:01;;;;;;;;;19.75;19.25;;;;;25.45;41.12;100524.88;4975111;28;46304;-73
2023/06/08 11:49:27;;;;;;;;;17.50;17.50;;;;;25.50;40.59;100516.19;4975004;28;45477;-73
2023/06/08 11:51:53;;;;;;;;;18.50;17.50;;;;;25.55;40.28;100508.34;4975327;28;45767;-73
2023/06/08 11:54:25;;;;;;;;;21.00;18.00;;;;;25.59;39.75;100506.13;4975239;28;45799;-73
2023/06/08 11:56:50;;;;;;;;;18.00;18.00;;;;;25.62;40.04;100513.72;4974120;28;46033;-72
2023/06/08 11:59:16;;;;;;;;;21.00;19.50;;;;;25.66;39.24;100518.47;4974766;28;45677;-72
2023/06/08 12:01:58;;;;;;;;;20.75;18.25;;;;;25.72;39.61;100498.84;4975100;28;45891;-73
2023/06/08 12:04:31;;;;;;;;;20.25;20.00;;;;;25.73;39.06;100502.34;4974880;28;47310;-73
2023/06/08 12:06:57;;;;;;;;;21.25;19.00;;;;;25.77;37.92;100504.41;4974785;28;47072;-74
2023/06/08 12:09:23;;;;;;;;;19.00;18.50;;;;;25.77;37.61;100498.22;4974896;28;45668;-72
2023/06/08 12:11:48;;;;;;;;;21.75;18.50;;;;;25.78;37.33;100499.84;4975101;28;45516;-72
2023/06/08 12:14:14;;;;;;;;;18.25;17.50;;;;;25.77;36.22;100503.56;4974604;28;46369;-73
2023/06/08 12:16:44;;;;;;;;;17.50;17.25;;;;;25.77;37.29;100495.53;4974566;28;47093;-74
2023/06/08 12:19:09;;;;;;;;;23.25;21.00;;;;;25.82;37.32;100493.03;4974218;28;45691;-72
2023/06/08 12:21:44;;;;;;;;;20.00;20.00;;;;;25.86;37.89;100494.25;4974379;28;45858;-71
2023/06/08 12:27:36;;;;;;;;;18.25;18.25;;;;;25.97;38.22;100477.47;4974491;28;45618;-73
2023/06/08 12:30:02;;;;;;;;;17.50;17.00;;;;;26.02;37.61;100476.88;4974124;28;45555;-71
2023/06/08 12:32:27;;;;;;;;;18.00;17.00;;;;;26.10;37.01;100474.75;4974571;28;45603;-73
2023/06/08 12:34:53;;;;;;;;;15.75;15.00;;;;;26.18;35.71;100479.06;4974447;28;46413;-72